Terminal Aerodrome Forecast
Issued by NWS Twin Cities, MN

Home | Current Version | Previous Version | Text Only | Print | Product List | Glossary On
Versions: 1 2 3 4 5 6 7 8 9 10 11 12 13 14 15 16 17 18 19 20 21 22
000
FTUS43 KMPX 011725
TAFEAU
TAF
KEAU 011725Z 0118/0218 20007KT P6SM BKN040
     FM020000 18007KT P6SM SCT040 PROB30 0208/0210 5SM -TSRA
      BKN050CB
     FM021000 20002KT 4SM BR SCT010 BKN200
     FM021200 18007KT P6SM VCTS BKN050CB=

USA.gov is the U.S. government's official web portal to all federal, state and local government web resources and services.